Prescott Valley, AZ

9:36 PM MST on September 20, 2014 (GMT -0700)
Flagstaff Pulliam | Change Station
CLOSE
Current Station
Airport
Location: Flagstaff,
Elevation: 7011 ft
Nearby Weather Stations

Elev 7011 ft 35.14 °N, 111.67 °W | Updated 39 minutes ago

Mostly Cloudy
Mostly Cloudy
63 °F
Feels Like 63 °F
N
0
Wind Variable Wind from North

Today
High -- | Low -- °F
--% Chance of Precip.
Yesterday
High -- | Low -- °F
Precip. -- in
6:15 AM 6:28 PM
Waning Crescent, 9% visible
Pressure 30.26 in
Visibility 10.0 miles
Clouds Mostly Cloudy 12000 ft
Dew Point 54 °F
Humidity 72%
Rainfall 0.00 in
Snow Depth 0 in , 17 in , 0 in
UV 0 out of 12
Pollen 6.40 out of 12
Air Quality Not available.
Flu Activity Not available.
METAR KFLG 210357Z 00000KT 10SM BKN120 17/12 A3026 RMK AO2 SLPNO T01720122 $

More Conditions Fewer Conditions

Pressure 30.26 in
Visibility 10.0 miles
Clouds Mostly Cloudy 12000 ft
Dew Point 54 °F
Humidity 72%
Rainfall 0.00 in
Snow Depth 0 in , 17 in , 0 in
UV 0 out of 12
Pollen 6.40 out of 12
Air Quality Not available.
Flu Activity Not available.
METAR KFLG 210357Z 00000KT 10SM BKN120 17/12 A3026 RMK AO2 SLPNO T01720122 $

More Conditions Fewer Conditions

10-Day Weather Forecast

Almanac

Astronomy

Sep. 20, 2014 Rise Set
Actual Time 6:15 AM MST 6:28 PM MST
Civil Twilight 5:50 AM MST 6:53 PM MST
Nautical Twilight 5:21 AM MST 7:23 PM MST
Astronomical Twilight 4:51 AM MST 7:53 PM MST
Moon 3:05 AM MST (9/20) 4:28 PM MST (9/20)
Length of Visible Light 13h 03m
Length of Day
12h 12m
Tomorrow will be 2m 9s shorter.
Waning Crescent, 9% of the Moon is Illuminated
Sep 21
Waning Crescent
Sep 24
New
Oct 1
First Quarter
Oct 8
Full
Oct 15
Last Quarter

Yesterday's Extremes

State Highs State Lows

Community

WunderPhotos

Upload Photos

1,755,081 photos uploaded!

Nearby

Snow Depth

Station Depth Elevation
Fry 0 in 7200 ft
Beaver Head 17 in 7990 ft
Promontory 0 in 7930 ft
Wildcat 0 in 7850 ft
Snowslide Canyon 0 in 9730 ft

Earthquake Activity

City Distance Mag. Time & Date
No recent earthquake activity has been reported nearby.
Minimum magnitude displayed is 2.5.

Coastal Water Temperatures

Place Temperature
No Stations Reporting

Nearby Weather Stations